OCN11 EDDF-KLAS
Flight info
| Callsign | OCN11 |
|---|---|
| Flight time | N/A |
| Altitude | 36000 |
| Route | OBOKA3D OBOKA Z28 DIBIR DCT BUDIP DCT GISEB DCT MIMVA DCT OTBED L60 PENIL M144 BAGSO DCT DOGAL/M082F380 DCT 54N020W 53N030W 52N040W 51N050W DCT ALLRY/N0465F380 DCT EXPOS/N0475F400 DCT VETRO DCT YSP DCT DLH J32 ABR DCT EKR J100 SAKES DCT GGAPP CHOWW4 |
| Aircraft | A333/H-SDE3GHIJ2J3J5M1RVWXY/LB2D1 |
Departure
| Time | N/A |
|---|---|
| Airport | Frankfurt Main Airport (EDDF) |
Arrival
| Time | 2026-05-01 07:27 |
|---|---|
| Airport | Harry Reid International Airport (KLAS) |
| Time | Latitude | Longitude | Altitude | Speed | Heading |
|---|---|---|---|---|---|
| 2026-05-01 07:23 | 36.07365 | -114.93771 | 5159 ft | 232 kts | 272° |
| 2026-05-01 07:23 | 36.07366 | -114.97601 | 4574 ft | 214 kts | 272° |
| 2026-05-01 07:24 | 36.07365 | -114.99407 | 4282 ft | 207 kts | 272° |
| 2026-05-01 07:24 | 36.07365 | -115.01161 | 4007 ft | 201 kts | 272° |
| 2026-05-01 07:24 | 36.07365 | -115.02850 | 3744 ft | 191 kts | 272° |
| 2026-05-01 07:24 | 36.07365 | -115.04432 | 3499 ft | 178 kts | 272° |
| 2026-05-01 07:25 | 36.07365 | -115.05905 | 3275 ft | 167 kts | 272° |
| 2026-05-01 07:25 | 36.07355 | -115.07296 | 3030 ft | 157 kts | 272° |
| 2026-05-01 07:25 | 36.07347 | -115.08603 | 2797 ft | 149 kts | 274° |
| 2026-05-01 07:25 | 36.07358 | -115.09857 | 2628 ft | 143 kts | 274° |
| 2026-05-01 07:26 | 36.07371 | -115.11061 | 2461 ft | 139 kts | 273° |
| 2026-05-01 07:26 | 36.07366 | -115.12241 | 2277 ft | 135 kts | 272° |
| 2026-05-01 07:26 | 36.07366 | -115.13351 | 2193 ft | 119 kts | 271° |
| 2026-05-01 07:26 | 36.07369 | -115.14095 | 2193 ft | 56 kts | 270° |
| 2026-05-01 07:27 | 36.07369 | -115.14545 | 2194 ft | 50 kts | 269° |
| 2026-05-01 07:27 | 36.07387 | -115.14825 | 2196 ft | 19 kts | 285° |
| 2026-05-01 07:27 | 36.07438 | -115.14983 | 2197 ft | 20 kts | 300° |
| 2026-05-01 07:27 | 36.07494 | -115.15085 | 2195 ft | 13 kts | 313° |
| 2026-05-01 07:28 | 36.07566 | -115.15139 | 2195 ft | 11 kts | 329° |
| 2026-05-01 07:28 | 36.07633 | -115.15188 | 2194 ft | 11 kts | 329° |
| 2026-05-01 07:28 | 36.07705 | -115.15234 | 2194 ft | 12 kts | 334° |
| 2026-05-01 07:28 | 36.07788 | -115.15283 | 2193 ft | 14 kts | 334° |
| 2026-05-01 07:29 | 36.07866 | -115.15280 | 2196 ft | 11 kts | 50° |
| 2026-05-01 07:29 | 36.07877 | -115.15191 | 2193 ft | 11 kts | 90° |
| 2026-05-01 07:29 | 36.07876 | -115.15090 | 2196 ft | 12 kts | 92° |
| 2026-05-01 07:29 | 36.07870 | -115.14977 | 2192 ft | 14 kts | 95° |
| 2026-05-01 07:30 | 36.07861 | -115.14851 | 2195 ft | 16 kts | 95° |
| 2026-05-01 07:30 | 36.07855 | -115.14759 | 2193 ft | 17 kts | 95° |
| 2026-05-01 07:30 | 36.07846 | -115.14608 | 2195 ft | 18 kts | 94° |
| 2026-05-01 07:30 | 36.07835 | -115.14444 | 2194 ft | 20 kts | 94° |
| 2026-05-01 07:31 | 36.07827 | -115.14270 | 2195 ft | 21 kts | 91° |
| 2026-05-01 07:31 | 36.07827 | -115.13697 | 2196 ft | 24 kts | 90° |
| 2026-05-01 07:32 | 36.07864 | -115.13380 | 2196 ft | 13 kts | 21° |
| 2026-05-01 07:32 | 36.07957 | -115.13373 | 2193 ft | 14 kts | 359° |
| 2026-05-01 07:33 | 36.08174 | -115.13374 | 2197 ft | 17 kts | 0° |
| 2026-05-01 07:33 | 36.08297 | -115.13374 | 2192 ft | 18 kts | 359° |
| 2026-05-01 07:33 | 36.08423 | -115.13490 | 2191 ft | 9 kts | 288° |
| 2026-05-01 07:34 | 36.08428 | -115.13548 | 2193 ft | 2 kts | 239° |
| 2026-05-01 07:34 | 36.08372 | -115.13574 | 2194 ft | 3 kts | 189° |
| 2026-05-01 07:34 | 36.08354 | -115.13577 | 2192 ft | 2 kts | 188° |
| 2026-05-01 07:35 | 36.08351 | -115.13577 | 2192 ft | 0 kts | 188° |
| 2026-05-01 07:35 | 36.08352 | -115.13577 | 2192 ft | 0 kts | 187° |